createdAt,value
2022-11-25T00:00:09.558Z,100674.41
2022-11-25T00:02:37.513Z,100670.00
2022-11-25T00:05:07.671Z,100675.44
2022-11-25T00:07:36.788Z,100667.06
2022-11-25T00:10:05.219Z,100667.28
2022-11-25T00:12:33.131Z,100668.94
2022-11-25T00:15:01.047Z,100653.69
2022-11-25T00:17:29.221Z,100659.94
2022-11-25T00:19:57.096Z,100655.34
2022-11-25T00:22:26.388Z,100651.78
2022-11-25T00:24:54.251Z,100655.75
2022-11-25T00:27:22.360Z,100635.06
2022-11-25T00:29:50.239Z,100633.41
2022-11-25T00:32:18.157Z,100639.88
2022-11-25T00:34:46.070Z,100637.38
2022-11-25T00:37:14.251Z,100640.09
2022-11-25T00:39:43.503Z,100632.78
2022-11-25T00:42:28.853Z,100607.22
2022-11-25T00:44:56.713Z,100631.72
2022-11-25T00:47:24.848Z,100635.06
2022-11-25T00:49:54.785Z,100624.19
2022-11-25T00:52:23.497Z,100623.63
2022-11-25T00:54:52.944Z,100634.81
2022-11-25T00:57:22.283Z,100634.81
2022-11-25T00:59:50.179Z,100622.91
2022-11-25T01:02:18.409Z,100610.88
2022-11-25T01:04:46.907Z,100620.38
2022-11-25T01:07:15.220Z,100628.53
2022-11-25T01:09:43.133Z,100628.53
2022-11-25T01:12:12.365Z,100629.38
2022-11-25T01:14:40.301Z,100631.25
2022-11-25T01:17:08.457Z,100625.00
2022-11-25T01:19:40.000Z,100630.66
2022-11-25T01:22:09.031Z,100632.09
2022-11-25T01:24:37.044Z,100625.81
2022-11-25T01:27:05.403Z,100626.66
2022-11-25T01:29:34.657Z,100618.47
2022-11-25T01:32:02.567Z,100622.06
2022-11-25T01:34:32.497Z,100613.94
2022-11-25T01:37:00.613Z,100622.28
2022-11-25T01:39:32.625Z,100614.94
2022-11-25T01:42:01.226Z,100602.25
2022-11-25T01:44:29.399Z,100627.72
2022-11-25T01:47:01.898Z,100594.19
2022-11-25T01:49:36.391Z,100620.38
2022-11-25T01:52:07.810Z,100616.44
2022-11-25T01:54:38.348Z,100625.66
2022-11-25T01:57:08.967Z,100616.31
2022-11-25T01:59:38.589Z,100620.47
2022-11-25T02:02:08.054Z,100625.91
2022-11-25T02:04:36.297Z,100618.81
2022-11-25T02:07:06.540Z,100604.44
2022-11-25T02:09:34.477Z,100613.38
2022-11-25T02:12:02.407Z,100619.63
2022-11-25T02:14:30.301Z,100616.09
2022-11-25T02:16:59.419Z,100619.38
2022-11-25T02:19:32.154Z,100613.94
2022-11-25T02:22:01.297Z,100617.50
2022-11-25T02:24:32.284Z,100578.41
2022-11-25T02:27:01.861Z,100605.56
2022-11-25T02:29:29.922Z,100612.69
2022-11-25T02:31:57.851Z,100610.78
2022-11-25T02:34:25.786Z,100598.72
2022-11-25T02:36:53.627Z,100595.31
2022-11-25T02:39:21.559Z,100596.13
2022-11-25T02:41:51.038Z,100599.69
2022-11-25T02:44:20.440Z,100596.97
2022-11-25T02:46:48.401Z,100561.81
2022-11-25T02:49:16.245Z,100596.13
2022-11-25T02:51:45.555Z,100597.81
2022-11-25T02:54:13.761Z,100595.09
2022-11-25T02:56:41.657Z,100592.56
2022-11-25T02:59:09.945Z,100602.41
2022-11-25T03:01:39.376Z,100597.81
2022-11-25T03:04:07.378Z,100598.59
2022-11-25T03:06:35.297Z,100599.06
2022-11-25T03:09:03.579Z,100597.81
2022-11-25T03:11:48.621Z,100592.38
2022-11-25T03:14:16.690Z,100572.19
2022-11-25T03:16:46.141Z,100545.47
2022-11-25T03:19:14.388Z,100605.34
2022-11-25T03:21:42.407Z,100608.50
2022-11-25T03:24:10.340Z,100616.09
2022-11-25T03:26:38.215Z,100614.19
2022-11-25T03:29:06.429Z,100618.19
2022-11-25T03:31:34.432Z,100614.63
2022-11-25T03:34:03.811Z,100614.41
2022-11-25T03:36:31.748Z,100610.88
2022-11-25T03:38:59.819Z,100602.19
2022-11-25T03:41:27.693Z,100621.53
2022-11-25T03:43:55.593Z,100620.47
2022-11-25T03:46:23.549Z,100623.78
2022-11-25T03:48:51.765Z,100616.66
2022-11-25T03:51:21.055Z,100625.66
2022-11-25T03:53:48.962Z,100625.66
2022-11-25T03:56:16.854Z,100626.28
2022-11-25T03:58:44.979Z,100625.44
2022-11-25T04:01:12.967Z,100629.00
2022-11-25T04:03:40.924Z,100637.16
2022-11-25T04:06:09.072Z,100642.59
2022-11-25T04:08:38.612Z,100639.88
2022-11-25T04:11:06.724Z,100638.22
2022-11-25T04:13:34.489Z,100625.78
2022-11-25T04:16:02.337Z,100618.09
2022-11-25T04:18:30.730Z,100633.25
2022-11-25T04:20:58.640Z,100623.63
2022-11-25T04:23:26.482Z,100640.56
2022-11-25T04:25:55.741Z,100620.63
2022-11-25T04:28:23.973Z,100640.78
2022-11-25T04:30:51.956Z,100651.88
2022-11-25T04:33:19.921Z,100654.19
2022-11-25T04:35:48.612Z,100656.91
2022-11-25T04:38:16.769Z,100654.84
2022-11-25T04:40:44.644Z,100664.22
2022-11-25T04:43:13.991Z,100666.94
2022-11-25T04:48:29.947Z,100668.00
2022-11-25T04:50:57.830Z,100662.19
2022-11-25T04:53:25.712Z,100678.88
2022-11-25T04:55:53.690Z,100680.56
2022-11-25T04:58:37.068Z,100629.38
2022-11-25T05:01:04.995Z,100675.09
2022-11-25T05:03:32.898Z,100680.56
2022-11-25T05:06:00.768Z,100691.44
2022-11-25T05:08:28.956Z,100686.81
2022-11-25T05:10:56.897Z,100686.00
2022-11-25T05:13:26.133Z,100689.53
2022-11-25T05:15:54.040Z,100666.78
2022-11-25T05:18:22.172Z,100680.19
2022-11-25T05:20:50.024Z,100692.84
2022-11-25T05:23:17.916Z,100702.94
2022-11-25T05:25:45.782Z,100701.84
2022-11-25T05:28:13.914Z,100690.13
2022-11-25T05:30:45.367Z,100701.84
2022-11-25T05:33:13.436Z,100699.97
2022-11-25T05:35:41.317Z,100704.56
2022-11-25T05:38:09.483Z,100700.22
2022-11-25T05:40:37.376Z,100705.66
2022-11-25T05:43:05.275Z,100710.84
2022-11-25T05:45:33.129Z,100710.00
2022-11-25T05:48:02.642Z,100708.13
2022-11-25T05:50:30.782Z,100707.06
2022-11-25T05:52:58.642Z,100702.78
2022-11-25T05:55:26.495Z,100714.41
2022-11-25T05:57:54.675Z,100721.72
2022-11-25T06:00:26.791Z,100724.47
2022-11-25T06:02:57.243Z,100719.84
2022-11-25T06:05:29.324Z,100731.56
2022-11-25T06:07:57.535Z,100737.63
2022-11-25T06:10:25.687Z,100735.13
2022-11-25T06:12:53.858Z,100734.06
2022-11-25T06:15:21.702Z,100745.78
2022-11-25T06:17:49.559Z,100743.50
2022-11-25T06:20:17.848Z,100752.50
2022-11-25T06:22:47.208Z,100751.66
2022-11-25T06:25:15.148Z,100741.28
2022-11-25T06:28:11.147Z,100757.34
2022-11-25T06:30:32.477Z,100760.88
2022-11-25T06:33:00.442Z,100746.94
2022-11-25T06:35:28.426Z,100767.41
2022-11-25T06:37:59.866Z,100772.59
2022-11-25T06:40:27.794Z,100777.81
2022-11-25T06:42:55.665Z,100776.16
2022-11-25T06:45:23.596Z,100787.88
2022-11-25T06:47:51.551Z,100785.16
2022-11-25T06:50:19.692Z,100783.47
2022-11-25T06:52:47.602Z,100781.38
2022-11-25T06:55:17.412Z,100773.72
2022-11-25T06:57:45.298Z,100793.09
2022-11-25T07:00:13.916Z,100794.97
2022-11-25T07:02:46.680Z,100789.53
2022-11-25T07:05:16.784Z,100796.88
2022-11-25T07:07:44.818Z,100808.59
2022-11-25T07:10:12.925Z,100806.69
2022-11-25T07:12:42.192Z,100800.25
2022-11-25T07:15:10.923Z,100811.31
2022-11-25T07:17:39.117Z,100810.25
2022-11-25T07:20:08.593Z,100807.75
2022-11-25T07:22:36.557Z,100816.75
2022-11-25T07:25:04.475Z,100818.44
2022-11-25T07:27:32.333Z,100827.44
2022-11-25T07:30:54.496Z,100824.69
2022-11-25T07:32:49.546Z,100818.69
2022-11-25T07:35:17.915Z,100832.88
2022-11-25T07:37:46.106Z,100834.75
2022-11-25T07:40:14.440Z,100837.47
2022-11-25T07:42:42.384Z,100852.75
2022-11-25T07:45:12.137Z,100854.63
2022-11-25T07:47:40.271Z,100845.31
2022-11-25T07:50:09.732Z,100870.34
2022-11-25T07:52:39.488Z,100868.47
2022-11-25T07:55:07.845Z,100872.22
2022-11-25T07:57:36.005Z,100877.66
2022-11-25T08:00:04.841Z,100882.06
2022-11-25T08:02:34.161Z,100866.25
2022-11-25T08:05:02.130Z,100878.50
2022-11-25T08:07:36.355Z,100859.34
2022-11-25T08:10:05.024Z,100878.50
2022-11-25T08:12:33.054Z,100878.50
2022-11-25T08:15:00.927Z,100887.50
2022-11-25T08:17:29.151Z,100894.84
2022-11-25T08:19:58.861Z,100888.38
2022-11-25T08:22:26.695Z,100904.66
2022-11-25T08:24:54.589Z,100903.81
2022-11-25T08:27:22.699Z,100909.28
2022-11-25T08:29:50.615Z,100894.66
2022-11-25T08:32:18.565Z,100910.31
2022-11-25T08:34:46.470Z,100916.59
2022-11-25T08:37:15.998Z,100921.81
2022-11-25T08:39:52.221Z,100931.88
2022-11-25T08:42:20.998Z,100932.09
2022-11-25T08:44:53.000Z,100888.78
2022-11-25T08:47:21.155Z,100945.47
2022-11-25T08:49:51.914Z,100950.09
2022-11-25T08:52:21.333Z,100939.22
2022-11-25T08:54:49.230Z,100942.75
2022-11-25T08:57:17.514Z,100950.09
2022-11-25T08:59:45.445Z,100948.22
2022-11-25T09:02:14.364Z,100940.88
2022-11-25T09:04:42.769Z,100943.59
2022-11-25T09:07:10.718Z,100948.22
2022-11-25T09:09:40.282Z,100943.81
2022-11-25T09:12:08.443Z,100943.81
2022-11-25T09:14:36.458Z,100951.97
2022-11-25T09:17:07.229Z,100958.25
2022-11-25T09:19:35.786Z,100962.88
2022-11-25T09:22:04.010Z,100952.00
2022-11-25T09:24:31.917Z,100962.47
2022-11-25T09:27:01.172Z,100970.81
2022-11-25T09:29:30.194Z,100973.75
2022-11-25T09:31:58.239Z,100982.75
2022-11-25T09:34:26.178Z,100985.47
2022-11-25T09:36:54.090Z,100992.78
2022-11-25T09:39:22.011Z,100996.34
2022-11-25T09:42:15.253Z,100975.47
2022-11-25T09:45:09.852Z,100994.69
2022-11-25T09:47:47.089Z,101003.69
2022-11-25T09:50:20.182Z,100958.22
2022-11-25T09:52:51.914Z,101007.22
2022-11-25T09:55:21.961Z,101002.63
2022-11-25T09:57:59.860Z,101002.63
2022-11-25T10:00:31.685Z,100969.69
2022-11-25T10:03:02.472Z,101014.56
2022-11-25T10:05:32.703Z,101018.97
2022-11-25T10:08:02.671Z,100982.06
2022-11-25T10:10:32.281Z,101027.13
2022-11-25T10:13:00.414Z,101017.94
2022-11-25T10:15:31.726Z,101026.28
2022-11-25T10:18:01.341Z,101019.78
2022-11-25T10:20:30.907Z,101026.28
2022-11-25T10:23:01.861Z,101036.13
2022-11-25T10:25:31.863Z,100989.19
2022-11-25T10:28:02.051Z,101043.44
2022-11-25T10:30:35.284Z,101049.72
2022-11-25T10:33:06.812Z,101002.97
2022-11-25T10:35:35.620Z,101034.91
2022-11-25T10:38:05.325Z,101055.16
2022-11-25T10:40:33.264Z,101057.91
2022-11-25T10:43:03.003Z,101031.38
2022-11-25T10:45:34.252Z,101056.00
2022-11-25T10:48:15.290Z,101062.28
2022-11-25T10:50:52.697Z,101057.06
2022-11-25T10:53:21.949Z,101053.72
2022-11-25T10:56:01.313Z,101057.91
2022-11-25T10:58:31.464Z,101066.91
2022-11-25T11:01:15.074Z,101073.19
2022-11-25T11:03:43.975Z,101069.63
2022-11-25T11:06:30.545Z,101074.22
2022-11-25T11:08:58.394Z,101076.09
2022-11-25T11:11:26.437Z,101072.34
2022-11-25T11:13:59.979Z,101074.44
2022-11-25T11:16:35.205Z,101063.56
2022-11-25T11:19:03.283Z,101080.53
2022-11-25T11:21:32.397Z,101089.72
2022-11-25T11:24:00.881Z,101088.88
2022-11-25T11:26:29.940Z,101092.44
2022-11-25T11:29:03.191Z,101094.94
2022-11-25T11:31:35.699Z,100999.16
2022-11-25T11:34:25.685Z,101071.78
2022-11-25T11:37:02.304Z,101096.84
2022-11-25T11:39:40.651Z,101096.00
2022-11-25T11:42:11.516Z,101097.88
2022-11-25T11:44:43.001Z,101096.66
2022-11-25T11:47:17.727Z,101109.59
2022-11-25T11:50:02.909Z,101100.19
2022-11-25T11:52:34.767Z,101109.59
2022-11-25T11:55:03.657Z,101110.44
2022-11-25T11:57:41.562Z,101104.16
2022-11-25T12:00:14.527Z,101103.53
2022-11-25T12:02:54.077Z,101107.91
2022-11-25T12:05:23.194Z,101096.47
2022-11-25T12:07:59.675Z,101061.38
2022-11-25T12:10:28.800Z,101117.75
2022-11-25T12:13:00.345Z,101118.59
2022-11-25T12:15:36.628Z,101121.53
2022-11-25T12:18:10.664Z,101093.38
2022-11-25T12:20:41.745Z,101116.94
2022-11-25T12:23:12.581Z,101133.25
2022-11-25T12:25:41.781Z,101134.09
2022-11-25T12:28:12.152Z,101138.31
2022-11-25T12:30:42.362Z,101145.81
2022-11-25T12:33:14.275Z,101140.19
2022-11-25T12:35:47.296Z,101108.22
2022-11-25T12:38:25.048Z,101160.47
2022-11-25T12:40:56.790Z,101153.34
2022-11-25T12:43:28.875Z,101162.16
2022-11-25T12:46:05.015Z,101174.91
2022-11-25T12:48:34.295Z,101174.06
2022-11-25T12:51:04.119Z,101175.97
2022-11-25T12:53:35.077Z,101162.59
2022-11-25T12:56:03.054Z,101178.69
2022-11-25T12:58:51.332Z,101182.25
2022-11-25T13:01:47.251Z,101173.50
2022-11-25T13:04:38.636Z,101184.13
2022-11-25T13:07:31.036Z,101192.28
2022-11-25T13:10:23.317Z,101175.56
2022-11-25T13:12:57.516Z,101152.38
2022-11-25T13:15:29.592Z,101193.13
2022-11-25T13:17:59.371Z,101196.88
2022-11-25T13:20:46.864Z,101214.69
2022-11-25T13:23:28.791Z,101191.47
2022-11-25T13:26:29.835Z,101215.72
2022-11-25T13:28:57.832Z,101216.78
2022-11-25T13:31:26.241Z,101190.22
2022-11-25T13:34:03.900Z,101226.63
2022-11-25T13:36:47.147Z,101226.63
2022-11-25T13:39:16.007Z,101214.91
2022-11-25T13:41:47.214Z,101224.09
2022-11-25T13:44:28.140Z,101233.09
2022-11-25T13:46:56.688Z,101187.53
2022-11-25T13:49:32.660Z,101234.34
2022-11-25T13:52:03.413Z,101239.38
2022-11-25T13:54:37.323Z,101244.84
2022-11-25T13:57:27.886Z,101246.28
2022-11-25T13:59:57.891Z,101246.50
2022-11-25T14:02:45.359Z,101209.06
2022-11-25T14:05:49.358Z,101240.22
2022-11-25T14:08:29.027Z,101253.84
2022-11-25T14:11:04.395Z,101255.72
2022-11-25T14:13:56.641Z,101264.72
2022-11-25T14:16:34.901Z,101271.84
2022-11-25T14:22:32.123Z,101252.81
2022-11-25T14:25:11.228Z,101272.03
2022-11-25T14:27:41.600Z,101277.50
2022-11-25T14:30:13.323Z,101284.81
2022-11-25T14:32:42.744Z,101283.13
2022-11-25T14:35:14.560Z,101287.53
2022-11-25T14:37:44.917Z,101290.25
2022-11-25T14:40:17.041Z,101295.91
2022-11-25T14:42:46.345Z,101304.31
2022-11-25T14:45:24.863Z,101300.31
2022-11-25T14:47:53.139Z,101274.16
2022-11-25T14:50:37.124Z,101308.47
2022-11-25T14:53:07.736Z,101312.66
2022-11-25T14:55:37.094Z,101313.72
2022-11-25T14:58:05.273Z,101321.88
2022-11-25T15:00:33.812Z,101323.75
2022-11-25T15:03:02.755Z,101325.44
2022-11-25T15:05:33.247Z,101329.00
2022-11-25T15:08:02.492Z,101328.16
2022-11-25T15:10:40.733Z,101333.59
2022-11-25T15:13:15.310Z,101312.47
2022-11-25T15:15:46.504Z,101341.75
2022-11-25T15:18:18.480Z,101341.75
2022-11-25T15:20:47.899Z,101337.16
2022-11-25T15:23:17.754Z,101329.19
2022-11-25T15:25:52.394Z,101341.75
2022-11-25T15:28:20.361Z,101350.78
2022-11-25T15:30:57.248Z,101342.41
2022-11-25T15:33:25.284Z,101362.69
2022-11-25T15:35:53.156Z,101361.00
2022-11-25T15:38:21.440Z,101368.13
2022-11-25T15:41:01.649Z,101361.22
2022-11-25T15:43:30.646Z,101375.25
2022-11-25T15:46:02.619Z,101379.88
2022-11-25T15:48:32.029Z,101382.59
2022-11-25T15:51:02.768Z,101390.75
2022-11-25T15:53:33.609Z,101398.91
2022-11-25T15:56:03.002Z,101406.25
2022-11-25T15:58:30.958Z,101416.94
2022-11-25T16:01:03.366Z,101417.97
2022-11-25T16:03:32.433Z,101380.06
2022-11-25T16:06:00.566Z,101425.09
2022-11-25T16:08:57.257Z,101278.69
2022-11-25T16:15:18.683Z,101034.09
2022-11-25T16:17:46.549Z,101440.34
2022-11-25T16:20:18.369Z,101436.78
2022-11-25T16:22:46.653Z,101437.03
2022-11-25T16:25:16.217Z,101449.59
2022-11-25T16:27:44.190Z,101454.19
2022-11-25T16:30:19.999Z,101453.13
2022-11-25T16:32:47.978Z,101456.91
2022-11-25T16:35:18.271Z,101429.66
2022-11-25T16:37:49.190Z,101466.13
2022-11-25T16:40:17.859Z,101466.13
2022-11-25T16:42:47.008Z,101474.28
2022-11-25T16:45:19.425Z,101474.28
2022-11-25T16:47:47.361Z,101472.59
2022-11-25T16:50:16.157Z,101463.38
2022-11-25T16:52:44.185Z,101480.56
2022-11-25T16:55:12.380Z,101482.44
2022-11-25T16:57:40.310Z,101452.88
2022-11-25T17:00:12.785Z,101499.81
2022-11-25T17:02:42.143Z,101439.69
2022-11-25T17:05:16.954Z,101514.25
2022-11-25T17:07:45.129Z,101515.09
2022-11-25T17:10:13.763Z,101515.09
2022-11-25T17:12:42.489Z,101514.25
2022-11-25T17:15:16.103Z,101518.66
2022-11-25T17:17:46.755Z,101497.88
2022-11-25T17:20:17.092Z,101524.97
2022-11-25T17:22:45.129Z,101539.41
2022-11-25T17:25:13.508Z,101534.16
2022-11-25T17:27:41.888Z,101536.69
2022-11-25T17:30:17.145Z,101542.94
2022-11-25T17:32:46.625Z,101542.94
2022-11-25T17:35:19.368Z,101544.00
2022-11-25T17:37:47.555Z,101559.28
2022-11-25T17:40:16.009Z,101557.63
2022-11-25T17:42:44.062Z,101548.56
2022-11-25T17:45:13.315Z,101556.94
2022-11-25T17:47:41.266Z,101580.22
2022-11-25T17:50:18.930Z,101564.03
2022-11-25T17:52:47.143Z,101589.22
2022-11-25T17:55:17.204Z,101593.00
2022-11-25T17:57:45.139Z,101601.81
2022-11-25T18:00:15.267Z,101611.81
2022-11-25T18:02:43.206Z,101609.97
2022-11-25T18:05:14.030Z,101517.38
2022-11-25T18:07:43.733Z,101630.44
2022-11-25T18:10:12.500Z,101627.72
2022-11-25T18:12:40.446Z,101626.03
2022-11-25T18:15:15.569Z,101634.22
2022-11-25T18:17:43.529Z,101640.50
2022-11-25T18:20:16.417Z,101636.94
2022-11-25T18:22:45.787Z,101645.09
2022-11-25T18:25:17.312Z,101656.00
2022-11-25T18:27:45.357Z,101645.09
2022-11-25T18:30:19.759Z,101656.63
2022-11-25T18:32:48.227Z,101640.88
2022-11-25T18:35:17.548Z,101653.25
2022-11-25T18:37:46.930Z,101652.84
2022-11-25T18:40:15.868Z,101656.63
2022-11-25T18:42:43.784Z,101662.09
2022-11-25T18:45:16.491Z,101644.44
2022-11-25T18:47:44.357Z,101674.66
2022-11-25T18:50:16.237Z,101676.31
2022-11-25T18:52:44.115Z,101680.94
2022-11-25T18:55:14.398Z,101698.09
2022-11-25T18:57:42.609Z,101669.09
2022-11-25T19:00:31.824Z,101707.09
2022-11-25T19:03:00.943Z,101700.56
2022-11-25T19:05:30.636Z,101697.22
2022-11-25T19:07:59.120Z,101710.88
2022-11-25T19:10:29.364Z,101713.59
2022-11-25T19:12:58.142Z,101709.19
2022-11-25T19:15:26.538Z,101607.75
2022-11-25T19:17:56.682Z,101689.63
2022-11-25T19:20:25.604Z,101725.53
2022-11-25T19:22:57.862Z,101710.59
2022-11-25T19:25:30.474Z,101726.56
2022-11-25T19:27:59.595Z,101736.59
2022-11-25T19:30:29.268Z,101739.31
2022-11-25T19:32:58.114Z,101744.78
2022-11-25T19:35:27.617Z,101752.75
2022-11-25T19:37:55.537Z,101747.31
2022-11-25T19:40:25.135Z,101745.81
2022-11-25T19:42:54.534Z,101754.81
2022-11-25T19:45:22.440Z,101768.44
2022-11-25T19:47:51.163Z,101773.03
2022-11-25T19:50:21.521Z,101777.63
2022-11-25T19:52:49.929Z,101769.22
2022-11-25T19:55:18.985Z,101774.91
2022-11-25T19:57:47.142Z,101784.94
2022-11-25T20:00:17.827Z,101661.13
2022-11-25T20:02:45.875Z,101798.56
2022-11-25T20:05:17.275Z,101795.81
2022-11-25T20:07:45.305Z,101786.81
2022-11-25T20:10:17.507Z,101792.25
2022-11-25T20:12:45.424Z,101797.72
2022-11-25T20:15:13.800Z,101803.81
2022-11-25T20:17:45.436Z,101769.28
2022-11-25T20:20:15.863Z,101816.56
2022-11-25T20:22:54.657Z,101818.44
2022-11-25T20:25:22.750Z,101821.16
2022-11-25T20:27:50.649Z,101825.78
2022-11-25T20:30:20.044Z,101832.06
2022-11-25T20:32:49.427Z,101833.75
2022-11-25T20:35:17.740Z,101833.94
2022-11-25T20:38:02.021Z,101847.53
2022-11-25T20:40:33.506Z,101855.72
2022-11-25T20:43:01.553Z,101863.25
2022-11-25T20:45:29.775Z,101864.94
2022-11-25T20:47:59.290Z,101863.25
2022-11-25T20:50:29.386Z,101864.09
2022-11-25T20:52:57.377Z,101862.59
2022-11-25T20:55:26.102Z,101870.38
2022-11-25T20:57:54.110Z,101872.25
2022-11-25T21:00:23.518Z,101866.56
2022-11-25T21:02:51.490Z,101886.72
2022-11-25T21:05:20.960Z,101883.34
2022-11-25T21:07:49.603Z,101884.56
2022-11-25T21:10:22.538Z,101887.75
2022-11-25T21:12:50.463Z,101893.19
2022-11-25T21:15:19.423Z,101899.66
2022-11-25T21:17:47.416Z,101900.31
2022-11-25T21:20:15.680Z,101895.84
2022-11-25T21:22:47.533Z,101904.69
2022-11-25T21:25:16.825Z,101904.91
2022-11-25T21:27:44.899Z,101898.75
2022-11-25T21:30:18.457Z,101915.59
2022-11-25T21:32:46.626Z,101916.44
2022-11-25T21:35:14.993Z,101918.31
2022-11-25T21:37:43.138Z,101921.03
2022-11-25T21:40:22.807Z,101899.09
2022-11-25T21:42:50.700Z,101929.19
2022-11-25T21:45:18.945Z,101937.38
2022-11-25T21:47:46.803Z,101939.25
2022-11-25T21:50:16.222Z,101945.75
2022-11-25T21:52:44.088Z,101939.25
2022-11-25T21:55:12.983Z,101857.97
2022-11-25T21:57:42.326Z,101949.31
2022-11-25T22:00:20.375Z,101950.97
2022-11-25T22:02:48.641Z,101947.41
2022-11-25T22:05:17.152Z,101949.31
2022-11-25T22:07:45.186Z,101956.41
2022-11-25T22:10:13.382Z,101953.69
2022-11-25T22:12:43.235Z,101955.56
2022-11-25T22:15:14.998Z,101955.53
2022-11-25T22:17:43.159Z,101966.47
2022-11-25T22:20:24.842Z,101973.81
2022-11-25T22:22:52.780Z,101968.38
2022-11-25T22:25:20.961Z,101968.38
2022-11-25T22:27:50.260Z,101974.84
2022-11-25T22:30:19.313Z,101987.44
2022-11-25T22:32:47.702Z,101978.41
2022-11-25T22:35:20.186Z,101983.00
2022-11-25T22:37:54.734Z,101982.16
2022-11-25T22:40:23.189Z,101990.34
2022-11-25T22:42:52.623Z,101992.22
2022-11-25T22:45:25.967Z,101999.34
2022-11-25T22:47:53.990Z,102003.94
2022-11-25T22:50:23.186Z,102006.66
2022-11-25T22:52:51.166Z,102013.78
2022-11-25T22:55:21.002Z,102006.41
2022-11-25T22:57:49.165Z,102024.88
2022-11-25T23:00:20.828Z,102027.59
2022-11-25T23:02:49.127Z,102030.50
2022-11-25T23:05:19.475Z,102022.06
2022-11-25T23:07:47.392Z,102031.34
2022-11-25T23:10:16.811Z,102012.78
2022-11-25T23:12:44.704Z,102008.97
2022-11-25T23:15:16.081Z,101982.22
2022-11-25T23:17:50.709Z,102039.06
2022-11-25T23:20:20.237Z,102045.97
2022-11-25T23:22:48.138Z,102048.69
2022-11-25T23:25:17.357Z,102051.41
2022-11-25T23:27:45.226Z,102048.69
2022-11-25T23:30:16.299Z,102053.50
2022-11-25T23:32:45.875Z,102051.41
2022-11-25T23:35:15.784Z,102039.38
2022-11-25T23:37:43.751Z,102058.75
2022-11-25T23:40:19.533Z,102057.94
2022-11-25T23:42:47.483Z,102062.31
2022-11-25T23:45:16.363Z,102019.72
2022-11-25T23:47:46.213Z,102066.09
2022-11-25T23:50:19.716Z,102077.78
2022-11-25T23:52:47.633Z,102082.44
2022-11-25T23:55:16.588Z,102031.44
2022-11-25T23:57:44.472Z,102081.56
